sensor_id;sensor_type;location;lat;lon;timestamp;temperature;humidity
4505;DHT22;2265;48.794;9.520;2023-05-18T00:00:00;6.70;98.00
4505;DHT22;2265;48.794;9.520;2023-05-18T00:02:27;6.70;98.00
4505;DHT22;2265;48.794;9.520;2023-05-18T00:04:56;6.60;98.00
4505;DHT22;2265;48.794;9.520;2023-05-18T00:07:26;6.40;98.00
4505;DHT22;2265;48.794;9.520;2023-05-18T00:09:54;6.40;98.00
4505;DHT22;2265;48.794;9.520;2023-05-18T00:12:22;6.60;98.00
4505;DHT22;2265;48.794;9.520;2023-05-18T00:14:50;6.80;98.00
4505;DHT22;2265;48.794;9.520;2023-05-18T00:17:17;6.70;98.00
4505;DHT22;2265;48.794;9.520;2023-05-18T00:19:45;6.40;98.00
4505;DHT22;2265;48.794;9.520;2023-05-18T00:22:13;6.30;98.00
4505;DHT22;2265;48.794;9.520;2023-05-18T00:24:43;6.40;98.00
4505;DHT22;2265;48.794;9.520;2023-05-18T00:27:14;6.40;98.00
4505;DHT22;2265;48.794;9.520;2023-05-18T00:29:41;6.30;98.00
4505;DHT22;2265;48.794;9.520;2023-05-18T00:32:08;6.20;98.00
4505;DHT22;2265;48.794;9.520;2023-05-18T00:34:35;6.10;98.00
4505;DHT22;2265;48.794;9.520;2023-05-18T00:37:02;6.20;98.00
4505;DHT22;2265;48.794;9.520;2023-05-18T00:39:31;6.10;98.00
4505;DHT22;2265;48.794;9.520;2023-05-18T00:41:58;5.90;98.00
4505;DHT22;2265;48.794;9.520;2023-05-18T00:44:25;6.00;98.00
4505;DHT22;2265;48.794;9.520;2023-05-18T00:46:52;6.20;98.00
4505;DHT22;2265;48.794;9.520;2023-05-18T00:49:19;6.40;98.00
4505;DHT22;2265;48.794;9.520;2023-05-18T00:51:47;6.30;98.00
4505;DHT22;2265;48.794;9.520;2023-05-18T00:54:15;6.30;98.00
4505;DHT22;2265;48.794;9.520;2023-05-18T00:56:47;6.20;98.00
4505;DHT22;2265;48.794;9.520;2023-05-18T00:59:14;6.20;98.00
4505;DHT22;2265;48.794;9.520;2023-05-18T01:01:43;6.30;98.00
4505;DHT22;2265;48.794;9.520;2023-05-18T01:04:11;6.00;98.00
4505;DHT22;2265;48.794;9.520;2023-05-18T01:06:40;5.70;98.00
4505;DHT22;2265;48.794;9.520;2023-05-18T01:09:08;5.60;98.00
4505;DHT22;2265;48.794;9.520;2023-05-18T01:11:54;5.50;98.00
4505;DHT22;2265;48.794;9.520;2023-05-18T01:14:26;5.70;98.00
4505;DHT22;2265;48.794;9.520;2023-05-18T01:17:04;5.70;98.00
4505;DHT22;2265;48.794;9.520;2023-05-18T01:23:05;5.60;98.00
4505;DHT22;2265;48.794;9.520;2023-05-18T01:25:46;5.50;98.00
4505;DHT22;2265;48.794;9.520;2023-05-18T01:28:19;5.40;98.00
4505;DHT22;2265;48.794;9.520;2023-05-18T01:30:47;5.50;98.00
4505;DHT22;2265;48.794;9.520;2023-05-18T01:33:19;5.50;98.00
4505;DHT22;2265;48.794;9.520;2023-05-18T01:35:46;5.50;98.00
4505;DHT22;2265;48.794;9.520;2023-05-18T01:38:14;5.40;98.00
4505;DHT22;2265;48.794;9.520;2023-05-18T01:40:47;5.50;98.00
4505;DHT22;2265;48.794;9.520;2023-05-18T01:43:17;5.60;98.00
4505;DHT22;2265;48.794;9.520;2023-05-18T01:45:49;5.60;98.00
4505;DHT22;2265;48.794;9.520;2023-05-18T01:48:23;5.70;98.00
4505;DHT22;2265;48.794;9.520;2023-05-18T01:50:53;5.50;98.00
4505;DHT22;2265;48.794;9.520;2023-05-18T01:53:24;5.50;98.00
4505;DHT22;2265;48.794;9.520;2023-05-18T01:55:53;5.50;98.00
4505;DHT22;2265;48.794;9.520;2023-05-18T01:58:22;5.50;98.00
4505;DHT22;2265;48.794;9.520;2023-05-18T02:00:51;5.40;98.00
4505;DHT22;2265;48.794;9.520;2023-05-18T02:03:19;5.40;98.00
4505;DHT22;2265;48.794;9.520;2023-05-18T02:05:46;5.40;98.00
4505;DHT22;2265;48.794;9.520;2023-05-18T02:08:13;5.40;98.00
4505;DHT22;2265;48.794;9.520;2023-05-18T02:10:40;5.20;98.00
4505;DHT22;2265;48.794;9.520;2023-05-18T02:13:07;5.10;98.00
4505;DHT22;2265;48.794;9.520;2023-05-18T02:15:36;5.20;98.00
4505;DHT22;2265;48.794;9.520;2023-05-18T02:18:04;5.30;98.00
4505;DHT22;2265;48.794;9.520;2023-05-18T02:20:33;5.30;98.00
4505;DHT22;2265;48.794;9.520;2023-05-18T02:23:02;5.20;98.00
4505;DHT22;2265;48.794;9.520;2023-05-18T02:25:29;5.10;98.00
4505;DHT22;2265;48.794;9.520;2023-05-18T02:27:56;5.00;98.00
4505;DHT22;2265;48.794;9.520;2023-05-18T02:30:23;5.00;98.00
4505;DHT22;2265;48.794;9.520;2023-05-18T02:32:51;5.00;98.00
4505;DHT22;2265;48.794;9.520;2023-05-18T02:35:19;4.90;98.00
4505;DHT22;2265;48.794;9.520;2023-05-18T02:37:46;4.90;98.00
4505;DHT22;2265;48.794;9.520;2023-05-18T02:40:14;4.90;98.00
4505;DHT22;2265;48.794;9.520;2023-05-18T02:42:42;5.00;98.00
4505;DHT22;2265;48.794;9.520;2023-05-18T02:45:09;5.00;98.00
4505;DHT22;2265;48.794;9.520;2023-05-18T02:47:36;5.20;98.00
4505;DHT22;2265;48.794;9.520;2023-05-18T02:50:07;5.00;98.00
4505;DHT22;2265;48.794;9.520;2023-05-18T02:52:34;4.90;98.00
4505;DHT22;2265;48.794;9.520;2023-05-18T02:55:01;4.70;98.00
4505;DHT22;2265;48.794;9.520;2023-05-18T02:57:28;4.70;98.00
4505;DHT22;2265;48.794;9.520;2023-05-18T02:59:59;4.70;98.00
4505;DHT22;2265;48.794;9.520;2023-05-18T03:02:26;4.70;98.00
4505;DHT22;2265;48.794;9.520;2023-05-18T03:04:54;4.70;98.00
4505;DHT22;2265;48.794;9.520;2023-05-18T03:07:23;4.80;98.00
4505;DHT22;2265;48.794;9.520;2023-05-18T03:09:52;4.70;98.00
4505;DHT22;2265;48.794;9.520;2023-05-18T03:12:19;4.70;98.00
4505;DHT22;2265;48.794;9.520;2023-05-18T03:14:46;4.70;98.00
4505;DHT22;2265;48.794;9.520;2023-05-18T03:17:14;4.70;98.00
4505;DHT22;2265;48.794;9.520;2023-05-18T03:19:41;4.70;98.00
4505;DHT22;2265;48.794;9.520;2023-05-18T03:22:08;4.60;98.00
4505;DHT22;2265;48.794;9.520;2023-05-18T03:24:36;4.60;98.00
4505;DHT22;2265;48.794;9.520;2023-05-18T03:27:05;4.60;98.00
4505;DHT22;2265;48.794;9.520;2023-05-18T03:29:32;4.50;98.00
4505;DHT22;2265;48.794;9.520;2023-05-18T03:32:00;4.50;98.00
4505;DHT22;2265;48.794;9.520;2023-05-18T03:34:27;4.50;98.00
4505;DHT22;2265;48.794;9.520;2023-05-18T03:36:55;4.60;98.00
4505;DHT22;2265;48.794;9.520;2023-05-18T03:39:22;4.60;98.00
4505;DHT22;2265;48.794;9.520;2023-05-18T03:41:51;4.70;98.00
4505;DHT22;2265;48.794;9.520;2023-05-18T03:44:18;4.60;98.00
4505;DHT22;2265;48.794;9.520;2023-05-18T03:46:45;4.80;98.00
4505;DHT22;2265;48.794;9.520;2023-05-18T03:49:12;4.60;98.00
4505;DHT22;2265;48.794;9.520;2023-05-18T03:51:39;4.60;98.00
4505;DHT22;2265;48.794;9.520;2023-05-18T03:54:07;4.50;98.00
4505;DHT22;2265;48.794;9.520;2023-05-18T03:56:34;4.40;98.00
4505;DHT22;2265;48.794;9.520;2023-05-18T03:59:02;4.30;98.00
4505;DHT22;2265;48.794;9.520;2023-05-18T04:01:31;4.40;98.00
4505;DHT22;2265;48.794;9.520;2023-05-18T04:03:58;4.50;98.00
4505;DHT22;2265;48.794;9.520;2023-05-18T04:06:25;4.40;98.00
4505;DHT22;2265;48.794;9.520;2023-05-18T04:08:53;4.50;98.00
4505;DHT22;2265;48.794;9.520;2023-05-18T04:11:20;4.60;98.00
4505;DHT22;2265;48.794;9.520;2023-05-18T04:13:47;4.50;98.00
4505;DHT22;2265;48.794;9.520;2023-05-18T04:16:16;4.50;98.00
4505;DHT22;2265;48.794;9.520;2023-05-18T04:18:44;4.50;98.00
4505;DHT22;2265;48.794;9.520;2023-05-18T04:21:11;4.60;98.00
4505;DHT22;2265;48.794;9.520;2023-05-18T04:23:38;4.70;98.00
4505;DHT22;2265;48.794;9.520;2023-05-18T04:26:05;4.70;98.00
4505;DHT22;2265;48.794;9.520;2023-05-18T04:28:33;4.80;98.00
4505;DHT22;2265;48.794;9.520;2023-05-18T04:31:02;4.80;98.00
4505;DHT22;2265;48.794;9.520;2023-05-18T04:33:31;4.70;98.00
4505;DHT22;2265;48.794;9.520;2023-05-18T04:35:59;4.70;98.00
4505;DHT22;2265;48.794;9.520;2023-05-18T04:38:29;4.80;98.00
4505;DHT22;2265;48.794;9.520;2023-05-18T04:40:57;4.80;98.00
4505;DHT22;2265;48.794;9.520;2023-05-18T04:43:25;5.00;98.00
4505;DHT22;2265;48.794;9.520;2023-05-18T04:45:52;4.90;98.00
4505;DHT22;2265;48.794;9.520;2023-05-18T04:48:19;4.90;98.00
4505;DHT22;2265;48.794;9.520;2023-05-18T04:50:48;5.00;98.00
4505;DHT22;2265;48.794;9.520;2023-05-18T04:53:18;5.10;98.00
4505;DHT22;2265;48.794;9.520;2023-05-18T04:55:47;5.20;98.00
4505;DHT22;2265;48.794;9.520;2023-05-18T04:58:15;5.20;98.00
4505;DHT22;2265;48.794;9.520;2023-05-18T05:00:42;5.30;98.00
4505;DHT22;2265;48.794;9.520;2023-05-18T05:03:09;5.40;98.00
4505;DHT22;2265;48.794;9.520;2023-05-18T05:05:36;5.30;98.00
4505;DHT22;2265;48.794;9.520;2023-05-18T05:08:05;5.40;98.00
4505;DHT22;2265;48.794;9.520;2023-05-18T05:10:32;5.40;98.00
4505;DHT22;2265;48.794;9.520;2023-05-18T05:12:59;5.50;98.00
4505;DHT22;2265;48.794;9.520;2023-05-18T05:15:26;5.60;98.00
4505;DHT22;2265;48.794;9.520;2023-05-18T05:17:53;5.80;98.00
4505;DHT22;2265;48.794;9.520;2023-05-18T05:20:20;5.80;98.00
4505;DHT22;2265;48.794;9.520;2023-05-18T05:22:47;6.00;98.00
4505;DHT22;2265;48.794;9.520;2023-05-18T05:25:16;6.10;98.00
4505;DHT22;2265;48.794;9.520;2023-05-18T05:27:43;6.30;98.00
4505;DHT22;2265;48.794;9.520;2023-05-18T05:30:10;6.50;98.00
4505;DHT22;2265;48.794;9.520;2023-05-18T05:32:37;6.70;98.00
4505;DHT22;2265;48.794;9.520;2023-05-18T05:35:06;6.90;98.00
4505;DHT22;2265;48.794;9.520;2023-05-18T05:37:34;6.90;98.00
4505;DHT22;2265;48.794;9.520;2023-05-18T05:40:01;7.00;98.00
4505;DHT22;2265;48.794;9.520;2023-05-18T05:42:32;7.00;98.00
4505;DHT22;2265;48.794;9.520;2023-05-18T05:44:59;7.10;98.00
4505;DHT22;2265;48.794;9.520;2023-05-18T05:47:26;7.10;98.00
4505;DHT22;2265;48.794;9.520;2023-05-18T05:49:54;7.10;98.00
4505;DHT22;2265;48.794;9.520;2023-05-18T05:52:21;7.10;98.00
4505;DHT22;2265;48.794;9.520;2023-05-18T05:54:49;7.30;98.00
4505;DHT22;2265;48.794;9.520;2023-05-18T05:57:16;7.40;98.00
4505;DHT22;2265;48.794;9.520;2023-05-18T05:59:44;7.60;98.00
4505;DHT22;2265;48.794;9.520;2023-05-18T06:02:11;7.70;98.00
4505;DHT22;2265;48.794;9.520;2023-05-18T06:04:38;7.90;98.00
4505;DHT22;2265;48.794;9.520;2023-05-18T06:07:06;8.10;98.00
4505;DHT22;2265;48.794;9.520;2023-05-18T06:09:33;8.10;98.00
4505;DHT22;2265;48.794;9.520;2023-05-18T06:12:00;8.30;98.00
4505;DHT22;2265;48.794;9.520;2023-05-18T06:14:27;8.50;98.00
4505;DHT22;2265;48.794;9.520;2023-05-18T06:16:57;8.60;98.00
4505;DHT22;2265;48.794;9.520;2023-05-18T06:19:24;8.70;98.00
4505;DHT22;2265;48.794;9.520;2023-05-18T06:21:51;8.70;98.00
4505;DHT22;2265;48.794;9.520;2023-05-18T06:24:18;8.80;98.00
4505;DHT22;2265;48.794;9.520;2023-05-18T06:26:45;8.80;98.00
4505;DHT22;2265;48.794;9.520;2023-05-18T06:29:14;9.00;98.00
4505;DHT22;2265;48.794;9.520;2023-05-18T06:31:41;9.10;98.00
4505;DHT22;2265;48.794;9.520;2023-05-18T06:34:09;9.20;98.00
4505;DHT22;2265;48.794;9.520;2023-05-18T06:36:36;9.30;98.00
4505;DHT22;2265;48.794;9.520;2023-05-18T06:39:04;9.50;98.00
4505;DHT22;2265;48.794;9.520;2023-05-18T06:41:32;9.60;98.00
4505;DHT22;2265;48.794;9.520;2023-05-18T06:43:59;9.70;98.00
4505;DHT22;2265;48.794;9.520;2023-05-18T06:46:26;9.90;98.00
4505;DHT22;2265;48.794;9.520;2023-05-18T06:48:55;10.10;98.00
4505;DHT22;2265;48.794;9.520;2023-05-18T06:51:24;10.30;98.00
4505;DHT22;2265;48.794;9.520;2023-05-18T06:53:54;10.40;98.00
4505;DHT22;2265;48.794;9.520;2023-05-18T06:56:21;10.60;98.00
4505;DHT22;2265;48.794;9.520;2023-05-18T06:58:48;10.70;98.00
4505;DHT22;2265;48.794;9.520;2023-05-18T07:01:16;10.80;98.00
4505;DHT22;2265;48.794;9.520;2023-05-18T07:03:43;10.90;98.00
4505;DHT22;2265;48.794;9.520;2023-05-18T07:06:11;11.00;98.00
4505;DHT22;2265;48.794;9.520;2023-05-18T07:08:39;11.10;98.00
4505;DHT22;2265;48.794;9.520;2023-05-18T07:11:06;11.20;98.00
4505;DHT22;2265;48.794;9.520;2023-05-18T07:13:35;11.30;98.00
4505;DHT22;2265;48.794;9.520;2023-05-18T07:16:02;11.40;98.00
4505;DHT22;2265;48.794;9.520;2023-05-18T07:18:29;11.40;98.00
4505;DHT22;2265;48.794;9.520;2023-05-18T07:20:56;11.60;98.00
4505;DHT22;2265;48.794;9.520;2023-05-18T07:23:23;11.80;98.00
4505;DHT22;2265;48.794;9.520;2023-05-18T07:25:52;11.90;98.00
4505;DHT22;2265;48.794;9.520;2023-05-18T07:28:23;12.00;98.00
4505;DHT22;2265;48.794;9.520;2023-05-18T07:30:50;12.20;98.00
4505;DHT22;2265;48.794;9.520;2023-05-18T07:33:17;12.30;98.00
4505;DHT22;2265;48.794;9.520;2023-05-18T07:35:44;12.40;98.00
4505;DHT22;2265;48.794;9.520;2023-05-18T07:38:11;12.50;98.00
4505;DHT22;2265;48.794;9.520;2023-05-18T07:40:38;12.60;98.00
4505;DHT22;2265;48.794;9.520;2023-05-18T07:43:07;12.70;98.00
4505;DHT22;2265;48.794;9.520;2023-05-18T07:45:35;12.80;98.00
4505;DHT22;2265;48.794;9.520;2023-05-18T07:48:02;13.00;98.00
4505;DHT22;2265;48.794;9.520;2023-05-18T07:50:29;13.10;98.00
4505;DHT22;2265;48.794;9.520;2023-05-18T07:52:57;13.10;98.00
4505;DHT22;2265;48.794;9.520;2023-05-18T07:55:24;13.20;98.00
4505;DHT22;2265;48.794;9.520;2023-05-18T07:57:51;13.30;98.00
4505;DHT22;2265;48.794;9.520;2023-05-18T08:00:20;13.40;98.00
4505;DHT22;2265;48.794;9.520;2023-05-18T08:02:48;13.50;98.00
4505;DHT22;2265;48.794;9.520;2023-05-18T08:05:15;13.70;98.00
4505;DHT22;2265;48.794;9.520;2023-05-18T08:07:43;13.80;98.00
4505;DHT22;2265;48.794;9.520;2023-05-18T08:10:11;13.90;98.00
4505;DHT22;2265;48.794;9.520;2023-05-18T08:12:38;14.00;98.00
4505;DHT22;2265;48.794;9.520;2023-05-18T08:15:07;14.10;98.00
4505;DHT22;2265;48.794;9.520;2023-05-18T08:17:36;14.30;98.00
4505;DHT22;2265;48.794;9.520;2023-05-18T08:20:05;14.30;98.00
4505;DHT22;2265;48.794;9.520;2023-05-18T08:22:33;14.40;98.00
4505;DHT22;2265;48.794;9.520;2023-05-18T08:25:00;14.50;98.00
4505;DHT22;2265;48.794;9.520;2023-05-18T08:27:27;14.60;98.00
4505;DHT22;2265;48.794;9.520;2023-05-18T08:29:55;14.70;98.00
4505;DHT22;2265;48.794;9.520;2023-05-18T08:32:22;14.90;98.00
4505;DHT22;2265;48.794;9.520;2023-05-18T08:34:50;15.00;98.00
4505;DHT22;2265;48.794;9.520;2023-05-18T08:37:19;15.10;98.00
4505;DHT22;2265;48.794;9.520;2023-05-18T08:39:46;15.30;98.00
4505;DHT22;2265;48.794;9.520;2023-05-18T08:42:18;15.50;98.00
4505;DHT22;2265;48.794;9.520;2023-05-18T08:44:49;15.70;98.00
4505;DHT22;2265;48.794;9.520;2023-05-18T08:47:17;15.80;98.00
4505;DHT22;2265;48.794;9.520;2023-05-18T08:49:53;15.90;98.00
4505;DHT22;2265;48.794;9.520;2023-05-18T08:52:24;15.90;97.40
4505;DHT22;2265;48.794;9.520;2023-05-18T08:54:53;16.00;96.40
4505;DHT22;2265;48.794;9.520;2023-05-18T08:57:21;16.00;98.00
4505;DHT22;2265;48.794;9.520;2023-05-18T08:59:51;16.20;98.00
4505;DHT22;2265;48.794;9.520;2023-05-18T09:02:18;16.20;98.00
4505;DHT22;2265;48.794;9.520;2023-05-18T09:04:46;16.10;95.70
4505;DHT22;2265;48.794;9.520;2023-05-18T09:07:15;16.10;97.80
4505;DHT22;2265;48.794;9.520;2023-05-18T09:09:44;16.20;94.40
4505;DHT22;2265;48.794;9.520;2023-05-18T09:12:12;16.20;96.90
4505;DHT22;2265;48.794;9.520;2023-05-18T09:14:42;16.30;98.00
4505;DHT22;2265;48.794;9.520;2023-05-18T09:17:09;16.60;95.50
4505;DHT22;2265;48.794;9.520;2023-05-18T09:19:36;16.80;94.40
4505;DHT22;2265;48.794;9.520;2023-05-18T09:22:03;17.00;94.30
4505;DHT22;2265;48.794;9.520;2023-05-18T09:24:33;17.10;93.40
4505;DHT22;2265;48.794;9.520;2023-05-18T09:27:03;17.00;93.20
4505;DHT22;2265;48.794;9.520;2023-05-18T09:29:30;17.10;93.70
4505;DHT22;2265;48.794;9.520;2023-05-18T09:32:01;17.20;94.10
4505;DHT22;2265;48.794;9.520;2023-05-18T09:34:38;17.30;93.00
4505;DHT22;2265;48.794;9.520;2023-05-18T09:37:06;17.40;93.40
4505;DHT22;2265;48.794;9.520;2023-05-18T09:39:35;17.50;93.20
4505;DHT22;2265;48.794;9.520;2023-05-18T09:42:02;17.40;92.90
4505;DHT22;2265;48.794;9.520;2023-05-18T09:44:33;17.50;93.70
4505;DHT22;2265;48.794;9.520;2023-05-18T09:47:01;17.60;93.40
4505;DHT22;2265;48.794;9.520;2023-05-18T09:49:30;17.80;92.40
4505;DHT22;2265;48.794;9.520;2023-05-18T09:51:57;17.90;93.80
4505;DHT22;2265;48.794;9.520;2023-05-18T09:54:25;18.00;92.20
4505;DHT22;2265;48.794;9.520;2023-05-18T09:56:56;18.20;92.10
4505;DHT22;2265;48.794;9.520;2023-05-18T09:59:23;18.30;91.60
4505;DHT22;2265;48.794;9.520;2023-05-18T10:01:59;18.40;90.80
4505;DHT22;2265;48.794;9.520;2023-05-18T10:04:37;18.40;91.10
4505;DHT22;2265;48.794;9.520;2023-05-18T10:07:11;18.10;90.20
4505;DHT22;2265;48.794;9.520;2023-05-18T10:09:38;18.10;90.90
4505;DHT22;2265;48.794;9.520;2023-05-18T10:12:11;18.00;91.00
4505;DHT22;2265;48.794;9.520;2023-05-18T10:14:40;18.10;90.60
4505;DHT22;2265;48.794;9.520;2023-05-18T10:17:07;18.20;91.00
4505;DHT22;2265;48.794;9.520;2023-05-18T10:19:39;18.20;88.50
4505;DHT22;2265;48.794;9.520;2023-05-18T10:22:07;18.30;90.80
4505;DHT22;2265;48.794;9.520;2023-05-18T10:24:37;18.60;90.80
4505;DHT22;2265;48.794;9.520;2023-05-18T10:27:07;18.60;89.70
4505;DHT22;2265;48.794;9.520;2023-05-18T10:29:36;18.80;90.50
4505;DHT22;2265;48.794;9.520;2023-05-18T10:32:04;19.00;89.60
4505;DHT22;2265;48.794;9.520;2023-05-18T10:34:32;19.20;89.30
4505;DHT22;2265;48.794;9.520;2023-05-18T10:37:00;19.40;88.60
4505;DHT22;2265;48.794;9.520;2023-05-18T10:39:30;19.60;88.60
4505;DHT22;2265;48.794;9.520;2023-05-18T10:41:59;19.80;88.10
4505;DHT22;2265;48.794;9.520;2023-05-18T10:44:29;19.70;85.20
4505;DHT22;2265;48.794;9.520;2023-05-18T10:46:58;19.80;88.30
4505;DHT22;2265;48.794;9.520;2023-05-18T10:49:27;19.90;84.70
4505;DHT22;2265;48.794;9.520;2023-05-18T10:51:57;19.70;84.70
4505;DHT22;2265;48.794;9.520;2023-05-18T10:54:27;19.80;86.40
4505;DHT22;2265;48.794;9.520;2023-05-18T10:56:54;19.90;85.40
4505;DHT22;2265;48.794;9.520;2023-05-18T10:59:21;20.10;86.90
4505;DHT22;2265;48.794;9.520;2023-05-18T11:01:50;20.30;84.80
4505;DHT22;2265;48.794;9.520;2023-05-18T11:04:23;20.40;85.80
4505;DHT22;2265;48.794;9.520;2023-05-18T11:06:56;20.60;86.50
4505;DHT22;2265;48.794;9.520;2023-05-18T11:09:25;20.90;85.00
4505;DHT22;2265;48.794;9.520;2023-05-18T11:11:53;21.00;83.80
4505;DHT22;2265;48.794;9.520;2023-05-18T11:14:27;20.90;83.00
4505;DHT22;2265;48.794;9.520;2023-05-18T11:17:15;21.10;84.30
4505;DHT22;2265;48.794;9.520;2023-05-18T11:20:14;21.40;83.00
4505;DHT22;2265;48.794;9.520;2023-05-18T11:22:47;21.50;82.90
4505;DHT22;2265;48.794;9.520;2023-05-18T11:25:37;21.70;83.20
4505;DHT22;2265;48.794;9.520;2023-05-18T11:28:06;21.80;80.60
4505;DHT22;2265;48.794;9.520;2023-05-18T11:30:48;22.00;81.40
4505;DHT22;2265;48.794;9.520;2023-05-18T11:33:23;22.10;80.00
4505;DHT22;2265;48.794;9.520;2023-05-18T11:36:14;22.10;80.70
4505;DHT22;2265;48.794;9.520;2023-05-18T11:38:53;21.90;79.50
4505;DHT22;2265;48.794;9.520;2023-05-18T11:41:34;22.00;81.70
4505;DHT22;2265;48.794;9.520;2023-05-18T11:44:14;22.40;79.90
4505;DHT22;2265;48.794;9.520;2023-05-18T11:46:58;22.70;80.20
4505;DHT22;2265;48.794;9.520;2023-05-18T11:49:27;22.50;79.20
4505;DHT22;2265;48.794;9.520;2023-05-18T11:52:03;22.70;79.30
4505;DHT22;2265;48.794;9.520;2023-05-18T11:54:44;22.90;79.00
4505;DHT22;2265;48.794;9.520;2023-05-18T11:57:14;22.60;78.40
4505;DHT22;2265;48.794;9.520;2023-05-18T11:59:43;22.00;77.90
4505;DHT22;2265;48.794;9.520;2023-05-18T12:02:13;22.10;78.70
4505;DHT22;2265;48.794;9.520;2023-05-18T12:04:46;22.30;79.60
4505;DHT22;2265;48.794;9.520;2023-05-18T12:07:17;22.20;77.40
4505;DHT22;2265;48.794;9.520;2023-05-18T12:09:45;22.30;79.90
4505;DHT22;2265;48.794;9.520;2023-05-18T12:12:15;22.60;79.80
4505;DHT22;2265;48.794;9.520;2023-05-18T12:14:48;22.60;78.80
4505;DHT22;2265;48.794;9.520;2023-05-18T12:17:18;22.50;79.40
4505;DHT22;2265;48.794;9.520;2023-05-18T12:19:47;22.50;80.10
4505;DHT22;2265;48.794;9.520;2023-05-18T12:22:16;22.50;79.60
4505;DHT22;2265;48.794;9.520;2023-05-18T12:24:43;22.70;77.50
4505;DHT22;2265;48.794;9.520;2023-05-18T12:27:11;23.10;80.70
4505;DHT22;2265;48.794;9.520;2023-05-18T12:29:39;22.80;76.50
4505;DHT22;2265;48.794;9.520;2023-05-18T12:32:08;22.80;77.50
4505;DHT22;2265;48.794;9.520;2023-05-18T12:34:36;22.70;78.40
4505;DHT22;2265;48.794;9.520;2023-05-18T12:37:04;22.70;78.30
4505;DHT22;2265;48.794;9.520;2023-05-18T12:39:33;22.50;78.30
4505;DHT22;2265;48.794;9.520;2023-05-18T12:42:12;22.20;77.80
4505;DHT22;2265;48.794;9.520;2023-05-18T12:44:40;21.50;78.40
4505;DHT22;2265;48.794;9.520;2023-05-18T12:47:09;21.20;80.60
4505;DHT22;2265;48.794;9.520;2023-05-18T12:49:37;21.20;81.30
4505;DHT22;2265;48.794;9.520;2023-05-18T12:52:09;21.80;82.20
4505;DHT22;2265;48.794;9.520;2023-05-18T12:54:50;21.80;79.60
4505;DHT22;2265;48.794;9.520;2023-05-18T12:57:23;21.60;79.20
4505;DHT22;2265;48.794;9.520;2023-05-18T12:59:56;22.00;80.60
4505;DHT22;2265;48.794;9.520;2023-05-18T13:02:31;22.60;78.30
4505;DHT22;2265;48.794;9.520;2023-05-18T13:05:03;23.10;78.00
4505;DHT22;2265;48.794;9.520;2023-05-18T13:07:30;22.90;77.40
4505;DHT22;2265;48.794;9.520;2023-05-18T13:10:08;22.30;76.80
4505;DHT22;2265;48.794;9.520;2023-05-18T13:12:38;21.80;77.90
4505;DHT22;2265;48.794;9.520;2023-05-18T13:15:13;21.70;78.50
4505;DHT22;2265;48.794;9.520;2023-05-18T13:17:54;22.30;79.70
4505;DHT22;2265;48.794;9.520;2023-05-18T13:20:22;22.80;76.20
4505;DHT22;2265;48.794;9.520;2023-05-18T13:22:49;23.10;77.00
4505;DHT22;2265;48.794;9.520;2023-05-18T13:25:18;23.70;77.40
4505;DHT22;2265;48.794;9.520;2023-05-18T13:27:45;23.60;74.90
4505;DHT22;2265;48.794;9.520;2023-05-18T13:30:14;22.90;75.30
4505;DHT22;2265;48.794;9.520;2023-05-18T13:32:41;22.40;76.80
4505;DHT22;2265;48.794;9.520;2023-05-18T13:35:08;22.30;78.70
4505;DHT22;2265;48.794;9.520;2023-05-18T13:37:36;22.50;79.40
4505;DHT22;2265;48.794;9.520;2023-05-18T13:40:05;22.40;76.60
4505;DHT22;2265;48.794;9.520;2023-05-18T13:42:34;22.10;77.00
4505;DHT22;2265;48.794;9.520;2023-05-18T13:45:01;22.20;77.90
4505;DHT22;2265;48.794;9.520;2023-05-18T13:47:28;22.40;77.80
4505;DHT22;2265;48.794;9.520;2023-05-18T13:49:56;22.80;77.30
4505;DHT22;2265;48.794;9.520;2023-05-18T13:52:23;23.10;77.70
4505;DHT22;2265;48.794;9.520;2023-05-18T13:54:50;23.40;76.50
4505;DHT22;2265;48.794;9.520;2023-05-18T13:57:17;23.00;74.10
4505;DHT22;2265;48.794;9.520;2023-05-18T13:59:45;22.40;76.10
4505;DHT22;2265;48.794;9.520;2023-05-18T14:02:12;22.00;77.20
4505;DHT22;2265;48.794;9.520;2023-05-18T14:04:39;22.40;79.30
4505;DHT22;2265;48.794;9.520;2023-05-18T14:07:09;23.00;78.30
4505;DHT22;2265;48.794;9.520;2023-05-18T14:09:37;23.60;76.20
4505;DHT22;2265;48.794;9.520;2023-05-18T14:12:04;23.90;74.60
4505;DHT22;2265;48.794;9.520;2023-05-18T14:14:32;24.10;73.70
4505;DHT22;2265;48.794;9.520;2023-05-18T14:17:00;24.20;74.10
4505;DHT22;2265;48.794;9.520;2023-05-18T14:19:29;24.30;73.20
4505;DHT22;2265;48.794;9.520;2023-05-18T14:21:56;23.80;73.70
4505;DHT22;2265;48.794;9.520;2023-05-18T14:24:23;23.10;74.10
4505;DHT22;2265;48.794;9.520;2023-05-18T14:26:50;23.10;74.90
4505;DHT22;2265;48.794;9.520;2023-05-18T14:29:18;23.40;76.30
4505;DHT22;2265;48.794;9.520;2023-05-18T14:31:45;23.20;74.60
4505;DHT22;2265;48.794;9.520;2023-05-18T14:34:14;22.70;74.90
4505;DHT22;2265;48.794;9.520;2023-05-18T14:36:41;22.10;76.00
4505;DHT22;2265;48.794;9.520;2023-05-18T14:39:09;21.80;77.20
4505;DHT22;2265;48.794;9.520;2023-05-18T14:41:36;21.40;77.30
4505;DHT22;2265;48.794;9.520;2023-05-18T14:44:03;21.10;79.20
4505;DHT22;2265;48.794;9.520;2023-05-18T14:46:34;20.80;78.80
4505;DHT22;2265;48.794;9.520;2023-05-18T14:49:01;20.60;78.90
4505;DHT22;2265;48.794;9.520;2023-05-18T14:51:29;20.50;79.70
4505;DHT22;2265;48.794;9.520;2023-05-18T14:53:57;20.50;81.10
4505;DHT22;2265;48.794;9.520;2023-05-18T14:56:24;20.60;82.30
4505;DHT22;2265;48.794;9.520;2023-05-18T14:58:51;20.50;79.20
4505;DHT22;2265;48.794;9.520;2023-05-18T15:01:18;20.30;80.40
4505;DHT22;2265;48.794;9.520;2023-05-18T15:03:45;20.40;80.60
4505;DHT22;2265;48.794;9.520;2023-05-18T15:06:12;20.40;86.00
4505;DHT22;2265;48.794;9.520;2023-05-18T15:08:41;20.30;79.70
4505;DHT22;2265;48.794;9.520;2023-05-18T15:11:09;20.20;80.30
4505;DHT22;2265;48.794;9.520;2023-05-18T15:13:36;20.10;81.50
4505;DHT22;2265;48.794;9.520;2023-05-18T15:16:06;19.90;80.50
4505;DHT22;2265;48.794;9.520;2023-05-18T15:18:33;19.80;83.60
4505;DHT22;2265;48.794;9.520;2023-05-18T15:21:00;19.80;86.40
4505;DHT22;2265;48.794;9.520;2023-05-18T15:23:27;19.90;83.20
4505;DHT22;2265;48.794;9.520;2023-05-18T15:25:56;19.90;82.90
4505;DHT22;2265;48.794;9.520;2023-05-18T15:28:23;19.80;82.30
4505;DHT22;2265;48.794;9.520;2023-05-18T15:30:51;19.70;82.40
4505;DHT22;2265;48.794;9.520;2023-05-18T15:33:19;19.60;83.30
4505;DHT22;2265;48.794;9.520;2023-05-18T15:35:46;19.60;82.90
4505;DHT22;2265;48.794;9.520;2023-05-18T15:38:14;19.50;83.40
4505;DHT22;2265;48.794;9.520;2023-05-18T15:40:41;19.50;82.50
4505;DHT22;2265;48.794;9.520;2023-05-18T15:43:13;19.40;83.50
4505;DHT22;2265;48.794;9.520;2023-05-18T15:45:40;19.30;82.70
4505;DHT22;2265;48.794;9.520;2023-05-18T15:48:07;19.10;82.70
4505;DHT22;2265;48.794;9.520;2023-05-18T15:50:34;19.10;83.40
4505;DHT22;2265;48.794;9.520;2023-05-18T15:53:01;19.10;83.80
4505;DHT22;2265;48.794;9.520;2023-05-18T15:55:28;19.10;84.40
4505;DHT22;2265;48.794;9.520;2023-05-18T15:57:55;19.10;82.90
4505;DHT22;2265;48.794;9.520;2023-05-18T16:00:24;19.20;82.20
4505;DHT22;2265;48.794;9.520;2023-05-18T16:02:51;19.20;83.20
4505;DHT22;2265;48.794;9.520;2023-05-18T16:05:18;19.10;83.40
4505;DHT22;2265;48.794;9.520;2023-05-18T16:07:45;19.10;82.60
4505;DHT22;2265;48.794;9.520;2023-05-18T16:10:13;19.10;82.50
4505;DHT22;2265;48.794;9.520;2023-05-18T16:12:43;19.10;82.90
4505;DHT22;2265;48.794;9.520;2023-05-18T16:15:10;19.20;84.10
4505;DHT22;2265;48.794;9.520;2023-05-18T16:17:39;19.20;82.40
4505;DHT22;2265;48.794;9.520;2023-05-18T16:20:07;19.30;81.80